Time;durP1;ratioP1;P1;durP2;ratioP2;P2;SDS_P1;SDS_P2;PMS_P1;PMS_P2;Temp;Humidity;BMP_temperature;BMP_pressure;BME280_temperature;BME280_humidity;BME280_pressure;Samples;Min_cycle;Max_cycle;Signal;HPM_P1;HPM_P2
2021/08/09 00:01:35;;;;;;;1.20;1.10;;;14.10;98.00;;;;;;5071684;28;20451;-78
2021/08/09 00:04:03;;;;;;;1.20;1.00;;;14.20;98.00;;;;;;5072219;28;20801;-79
2021/08/09 00:06:34;;;;;;;1.53;1.30;;;14.30;98.00;;;;;;5071657;28;21003;-79
2021/08/09 00:09:02;;;;;;;1.30;1.30;;;14.20;98.00;;;;;;5071721;28;20457;-78
2021/08/09 00:11:29;;;;;;;1.20;1.00;;;14.10;98.00;;;;;;5071782;28;20456;-78
2021/08/09 00:13:56;;;;;;;1.20;1.10;;;14.20;98.00;;;;;;5071751;28;20460;-78
2021/08/09 00:16:24;;;;;;;1.20;1.10;;;14.20;98.00;;;;;;5071414;28;20521;-78
2021/08/09 00:18:51;;;;;;;1.20;1.00;;;14.30;98.00;;;;;;5053694;28;20462;-78
2021/08/09 00:21:20;;;;;;;1.40;1.30;;;14.20;98.00;;;;;;5071583;28;20492;-79
2021/08/09 00:23:49;;;;;;;1.30;1.17;;;14.20;98.00;;;;;;5071638;28;20455;-78
2021/08/09 00:26:19;;;;;;;1.87;1.30;;;14.20;98.00;;;;;;5071727;28;21008;-80
2021/08/09 00:28:46;;;;;;;1.30;1.20;;;14.40;98.00;;;;;;5071630;28;20810;-78
2021/08/09 00:31:13;;;;;;;1.20;0.90;;;14.40;98.00;;;;;;5071446;28;20522;-78
2021/08/09 00:33:40;;;;;;;1.20;1.10;;;14.30;98.00;;;;;;5071536;28;20502;-79
2021/08/09 00:36:07;;;;;;;1.20;1.00;;;14.20;98.00;;;;;;5053526;28;20459;-79
2021/08/09 00:38:34;;;;;;;1.20;1.10;;;14.00;98.00;;;;;;5071504;28;20485;-78
2021/08/09 00:41:02;;;;;;;1.20;1.10;;;14.10;98.00;;;;;;5071460;28;20511;-78
2021/08/09 00:43:30;;;;;;;1.20;1.10;;;14.00;98.00;;;;;;5071428;28;20548;-79
2021/08/09 00:46:01;;;;;;;1.20;1.10;;;14.00;98.00;;;;;;5053887;28;20461;-79
2021/08/09 00:48:31;;;;;;;1.93;1.30;;;14.00;98.00;;;;;;5071554;28;20470;-80
2021/08/09 00:50:58;;;;;;;1.40;1.30;;;14.00;98.00;;;;;;5070583;28;20465;-79
2021/08/09 00:53:25;;;;;;;1.20;1.00;;;13.90;98.00;;;;;;5071502;28;20491;-79
2021/08/09 00:55:52;;;;;;;1.40;1.23;;;13.80;98.00;;;;;;5071494;28;20494;-79
2021/08/09 00:58:21;;;;;;;4.80;1.27;;;13.80;98.00;;;;;;5073392;28;20491;-79
2021/08/09 01:00:48;;;;;;;1.50;1.20;;;13.80;98.00;;;;;;5057099;28;20851;-80
2021/08/09 01:03:15;;;;;;;1.20;1.00;;;13.80;98.00;;;;;;5075431;28;20527;-78
2021/08/09 01:05:43;;;;;;;1.30;1.20;;;13.80;98.00;;;;;;5074849;28;20503;-78
2021/08/09 01:08:31;;;;;;;1.30;1.10;;;13.90;98.00;;;;;;5075211;28;20459;-79
2021/08/09 01:11:10;;;;;;;1.30;1.10;;;13.90;98.00;;;;;;5074973;28;20461;-79
2021/08/09 01:13:51;;;;;;;2.60;1.30;;;13.60;98.00;;;;;;5057404;28;20591;-79
2021/08/09 01:16:22;;;;;;;1.20;1.03;;;13.50;98.00;;;;;;5074733;28;20466;-79
2021/08/09 01:18:50;;;;;;;1.20;1.00;;;13.30;98.00;;;;;;5057251;28;20482;-78
2021/08/09 01:21:20;;;;;;;1.97;1.40;;;13.40;98.00;;;;;;5074683;28;20488;-79
2021/08/09 01:23:59;;;;;;;1.30;1.10;;;13.30;98.00;;;;;;5074664;28;20455;-78
2021/08/09 01:26:35;;;;;;;1.20;1.13;;;13.20;98.00;;;;;;5074706;28;20460;-79
2021/08/09 01:29:06;;;;;;;1.20;1.00;;;13.10;98.00;;;;;;5074710;28;20800;-80
2021/08/09 01:31:39;;;;;;;1.30;1.20;;;13.00;98.00;;;;;;5074271;28;20466;-79
2021/08/09 01:34:07;;;;;;;1.20;0.97;;;13.00;98.00;;;;;;5074418;28;20487;-78
2021/08/09 01:36:35;;;;;;;1.20;1.00;;;13.00;98.00;;;;;;5074377;28;20458;-77
2021/08/09 01:39:03;;;;;;;1.50;1.37;;;13.00;98.00;;;;;;5074129;28;20913;-77
2021/08/09 01:41:31;;;;;;;1.20;1.00;;;13.00;98.00;;;;;;5074105;28;20512;-77
2021/08/09 01:43:58;;;;;;;1.20;1.10;;;13.10;98.00;;;;;;5074256;28;20454;-78
2021/08/09 01:46:27;;;;;;;1.40;1.17;;;13.10;98.00;;;;;;5056325;28;20909;-78
2021/08/09 01:48:56;;;;;;;1.20;1.10;;;13.10;98.00;;;;;;5073971;28;20485;-77
2021/08/09 01:51:24;;;;;;;1.20;1.00;;;13.00;98.00;;;;;;5074070;28;20532;-78
2021/08/09 01:53:53;;;;;;;1.80;1.30;;;12.90;98.00;;;;;;5074152;28;20456;-77
2021/08/09 01:56:20;;;;;;;2.17;1.33;;;12.80;98.00;;;;;;5073979;28;20466;-78
2021/08/09 01:58:51;;;;;;;1.30;1.07;;;12.70;98.00;;;;;;5056002;28;20581;-77
2021/08/09 02:01:18;;;;;;;1.20;0.90;;;12.70;98.00;;;;;;5073823;28;20455;-77
2021/08/09 02:03:47;;;;;;;1.30;1.10;;;12.60;98.00;;;;;;5073742;28;20923;-78
2021/08/09 02:06:14;;;;;;;1.20;1.00;;;12.60;98.00;;;;;;5073753;28;20496;-76
2021/08/09 02:08:42;;;;;;;1.30;1.10;;;12.80;98.00;;;;;;5073399;28;20550;-78
2021/08/09 02:11:15;;;;;;;1.20;1.10;;;12.70;98.00;;;;;;5073202;28;20500;-78
2021/08/09 02:13:46;;;;;;;2.17;1.23;;;12.70;98.00;;;;;;5073760;28;20976;-77
2021/08/09 02:16:19;;;;;;;1.20;1.03;;;12.60;98.00;;;;;;5073578;28;20493;-77
2021/08/09 02:18:54;;;;;;;1.20;1.00;;;12.70;98.00;;;;;;5073456;28;20547;-78
2021/08/09 02:21:26;;;;;;;1.37;1.13;;;12.70;98.00;;;;;;5073420;28;20948;-77
2021/08/09 02:23:54;;;;;;;1.20;1.03;;;12.70;98.00;;;;;;5073577;28;20507;-77
2021/08/09 02:26:27;;;;;;;1.20;0.93;;;12.70;98.00;;;;;;5073379;28;20494;-78
2021/08/09 02:28:56;;;;;;;2.07;1.10;;;12.70;98.00;;;;;;5073424;28;20452;-78
2021/08/09 02:31:27;;;;;;;1.30;1.00;;;12.70;98.00;;;;;;5073104;28;20467;-77
2021/08/09 02:33:55;;;;;;;1.20;1.00;;;12.80;98.00;;;;;;5073621;28;20456;-78
2021/08/09 02:36:22;;;;;;;1.57;1.23;;;12.80;98.00;;;;;;5073127;28;20453;-77
2021/08/09 02:38:50;;;;;;;1.20;1.10;;;12.80;98.00;;;;;;5072823;28;20848;-76
2021/08/09 02:41:18;;;;;;;1.20;1.07;;;12.70;98.00;;;;;;5072391;28;20503;-78
2021/08/09 02:43:46;;;;;;;1.20;1.00;;;12.50;98.00;;;;;;5072150;28;20486;-76
2021/08/09 02:46:12;;;;;;;1.20;1.07;;;12.50;98.00;;;;;;5072078;28;20461;-76
2021/08/09 02:48:42;;;;;;;1.30;1.00;;;12.40;98.00;;;;;;5072200;28;20545;-76
2021/08/09 02:51:12;;;;;;;1.40;1.10;;;12.40;98.00;;;;;;5055133;28;20479;-77
2021/08/09 02:53:40;;;;;;;1.20;1.00;;;12.40;98.00;;;;;;5072799;28;20468;-76
2021/08/09 02:56:08;;;;;;;1.97;1.10;;;12.40;98.00;;;;;;5072642;28;20565;-77
2021/08/09 02:58:35;;;;;;;2.23;1.10;;;12.20;98.00;;;;;;5054805;28;20578;-76
2021/08/09 03:01:02;;;;;;;1.20;1.10;;;12.20;98.00;;;;;;5072643;28;20458;-77
2021/08/09 03:03:32;;;;;;;1.20;1.00;;;12.10;98.00;;;;;;5072630;28;20451;-77
2021/08/09 03:06:01;;;;;;;1.50;1.20;;;12.10;98.00;;;;;;5072446;28;20457;-78
2021/08/09 03:08:31;;;;;;;1.20;1.10;;;12.10;98.00;;;;;;5072395;28;20537;-76
2021/08/09 03:10:58;;;;;;;2.43;1.40;;;12.10;98.00;;;;;;5072272;28;20471;-77
2021/08/09 03:13:27;;;;;;;1.20;1.17;;;12.10;98.00;;;;;;5072525;28;20882;-77
2021/08/09 03:15:54;;;;;;;1.20;1.00;;;12.10;98.00;;;;;;5070313;28;20538;-76
2021/08/09 03:18:21;;;;;;;1.20;1.00;;;12.10;98.00;;;;;;5072191;28;20485;-76
2021/08/09 03:20:48;;;;;;;1.40;1.10;;;12.20;98.00;;;;;;5072196;28;20485;-77
2021/08/09 03:23:15;;;;;;;2.13;1.10;;;12.10;98.00;;;;;;5072155;28;20490;-77
2021/08/09 03:25:44;;;;;;;1.60;1.33;;;12.40;98.00;;;;;;5072165;28;20479;-77
2021/08/09 03:28:10;;;;;;;1.20;1.10;;;12.40;98.00;;;;;;5072177;28;20450;-76
2021/08/09 03:30:37;;;;;;;1.20;1.03;;;12.50;98.00;;;;;;5071958;28;20986;-77
2021/08/09 03:33:04;;;;;;;1.20;1.00;;;12.60;98.00;;;;;;5072004;28;20516;-77
2021/08/09 03:35:31;;;;;;;1.27;1.10;;;12.50;98.00;;;;;;5072198;28;20595;-78
2021/08/09 03:37:58;;;;;;;1.40;1.10;;;12.40;98.00;;;;;;5071910;28;20484;-78
2021/08/09 03:40:27;;;;;;;1.20;1.00;;;12.40;98.00;;;;;;5072258;28;20502;-77
2021/08/09 03:42:55;;;;;;;1.30;1.20;;;12.40;98.00;;;;;;5072038;28;21002;-78
2021/08/09 03:45:22;;;;;;;1.20;0.93;;;12.30;98.00;;;;;;5072287;28;20506;-76
2021/08/09 03:47:49;;;;;;;2.80;1.20;;;12.20;98.00;;;;;;5072189;28;20994;-76
2021/08/09 03:50:16;;;;;;;1.40;1.20;;;12.20;98.00;;;;;;5054086;28;20522;-77
2021/08/09 03:52:47;;;;;;;1.20;1.10;;;12.10;98.00;;;;;;5054112;28;20478;-76
2021/08/09 03:55:14;;;;;;;2.37;1.30;;;12.10;98.00;;;;;;5072123;28;20453;-78
2021/08/09 03:57:42;;;;;;;1.30;1.10;;;12.00;98.00;;;;;;5071608;28;20451;-76
2021/08/09 04:00:12;;;;;;;2.13;1.50;;;12.00;98.00;;;;;;5071726;28;20457;-77
2021/08/09 04:02:39;;;;;;;1.20;1.00;;;11.90;98.00;;;;;;5071815;28;20463;-78
2021/08/09 04:05:08;;;;;;;1.20;1.00;;;12.10;98.00;;;;;;5071578;28;20471;-77
2021/08/09 04:07:35;;;;;;;1.93;1.27;;;12.00;98.00;;;;;;5071688;28;20500;-77
2021/08/09 04:10:03;;;;;;;1.20;1.00;;;12.00;98.00;;;;;;5071587;28;20454;-76
2021/08/09 04:12:30;;;;;;;1.20;1.10;;;12.20;98.00;;;;;;5053779;28;20507;-76
2021/08/09 04:14:57;;;;;;;1.20;1.07;;;12.30;98.00;;;;;;5071442;28;20497;-77
2021/08/09 04:17:25;;;;;;;1.30;1.20;;;12.40;98.00;;;;;;5071520;28;20545;-76
2021/08/09 04:19:52;;;;;;;1.20;1.20;;;12.40;98.00;;;;;;5071385;28;20523;-77
2021/08/09 04:22:19;;;;;;;1.20;1.00;;;12.30;98.00;;;;;;5071341;28;20457;-76
2021/08/09 04:24:46;;;;;;;1.40;1.10;;;12.40;98.00;;;;;;5071628;28;20490;-75
2021/08/09 04:27:13;;;;;;;1.20;1.07;;;12.40;98.00;;;;;;5071342;28;20505;-76
2021/08/09 04:29:40;;;;;;;1.30;1.20;;;12.50;98.00;;;;;;5071361;28;21296;-77
2021/08/09 04:32:15;;;;;;;1.50;1.20;;;12.60;98.00;;;;;;5071403;28;20502;-76
2021/08/09 04:34:44;;;;;;;1.27;1.27;;;12.50;98.00;;;;;;5075426;28;20453;-77
2021/08/09 04:37:12;;;;;;;1.37;1.10;;;12.40;98.00;;;;;;5075169;28;20521;-77
2021/08/09 04:39:39;;;;;;;1.20;1.00;;;12.30;98.00;;;;;;5075161;28;20487;-76
2021/08/09 04:42:06;;;;;;;1.30;1.20;;;12.20;98.00;;;;;;5075259;28;20501;-76
2021/08/09 04:44:33;;;;;;;1.77;1.20;;;12.20;98.00;;;;;;5075204;28;20528;-76
2021/08/09 04:47:00;;;;;;;1.30;1.23;;;12.10;98.00;;;;;;5057297;28;20459;-76
2021/08/09 04:49:27;;;;;;;1.20;1.10;;;12.00;98.00;;;;;;5075209;28;20462;-77
2021/08/09 04:51:56;;;;;;;1.30;1.10;;;11.90;98.00;;;;;;5075089;28;20516;-77
2021/08/09 04:54:23;;;;;;;1.60;1.20;;;11.90;98.00;;;;;;5057350;28;20504;-76
2021/08/09 04:56:50;;;;;;;1.50;1.10;;;11.90;98.00;;;;;;5074935;28;21024;-76
2021/08/09 04:59:17;;;;;;;1.30;1.00;;;11.90;98.00;;;;;;5074963;28;20486;-77
2021/08/09 05:01:44;;;;;;;1.20;1.00;;;12.00;98.00;;;;;;5074946;28;20454;-76
2021/08/09 05:04:11;;;;;;;1.20;1.10;;;12.20;98.00;;;;;;5075117;28;20541;-76
2021/08/09 05:06:39;;;;;;;2.70;1.30;;;12.30;98.00;;;;;;5057491;28;20459;-78
2021/08/09 05:09:07;;;;;;;1.20;1.10;;;12.50;98.00;;;;;;5075035;28;20490;-76
2021/08/09 05:11:34;;;;;;;1.20;1.00;;;12.60;98.00;;;;;;5074948;28;20564;-76
2021/08/09 05:14:01;;;;;;;1.30;1.10;;;12.60;98.00;;;;;;5074778;28;20457;-76
2021/08/09 05:16:29;;;;;;;1.20;1.10;;;12.60;98.00;;;;;;5074876;28;20547;-77
2021/08/09 05:19:01;;;;;;;1.20;1.10;;;12.50;98.00;;;;;;5074637;28;20481;-76
2021/08/09 05:21:28;;;;;;;1.20;1.00;;;12.50;98.00;;;;;;5074571;28;20459;-77
2021/08/09 05:23:55;;;;;;;1.20;1.00;;;12.30;98.00;;;;;;5074489;28;20467;-78
2021/08/09 05:26:24;;;;;;;1.20;1.17;;;12.30;98.00;;;;;;5074186;28;20993;-76
2021/08/09 05:28:52;;;;;;;1.80;1.33;;;12.30;98.00;;;;;;5074503;28;20460;-77
2021/08/09 05:31:19;;;;;;;1.20;1.00;;;12.40;98.00;;;;;;5074168;28;20964;-77
2021/08/09 05:33:47;;;;;;;1.20;1.10;;;12.50;98.00;;;;;;5056311;28;20524;-76
2021/08/09 05:36:15;;;;;;;1.20;1.00;;;12.60;98.00;;;;;;5056670;28;20460;-77
2021/08/09 05:38:42;;;;;;;1.20;1.00;;;12.60;98.00;;;;;;5074158;28;20509;-76
2021/08/09 05:41:09;;;;;;;1.20;1.10;;;12.80;98.00;;;;;;5073977;28;20525;-76
2021/08/09 05:43:37;;;;;;;1.20;1.00;;;12.90;98.00;;;;;;5073347;28;20468;-76
2021/08/09 05:46:04;;;;;;;1.50;1.23;;;13.00;98.00;;;;;;5073569;28;20514;-78
2021/08/09 05:48:31;;;;;;;1.20;1.10;;;13.10;98.00;;;;;;5073922;28;20494;-76
2021/08/09 05:50:58;;;;;;;1.20;1.10;;;13.20;98.00;;;;;;5074003;28;20537;-76
2021/08/09 05:53:27;;;;;;;1.30;1.20;;;13.20;98.00;;;;;;5073792;28;20524;-75
2021/08/09 05:55:55;;;;;;;1.20;1.10;;;13.20;98.00;;;;;;5074077;28;20960;-77
2021/08/09 05:58:22;;;;;;;1.30;1.20;;;13.00;98.00;;;;;;5073919;28;20459;-77
2021/08/09 06:00:55;;;;;;;1.20;1.20;;;13.10;98.00;;;;;;5073905;28;20478;-77
2021/08/09 06:03:23;;;;;;;1.20;1.00;;;13.00;98.00;;;;;;5073715;28;20471;-78
2021/08/09 06:05:52;;;;;;;1.20;1.20;;;13.00;98.00;;;;;;5073966;28;20540;-77
2021/08/09 06:08:19;;;;;;;1.20;1.20;;;13.00;98.00;;;;;;5073869;28;20464;-76
2021/08/09 06:10:46;;;;;;;2.00;1.30;;;13.30;98.00;;;;;;5073805;28;20453;-77
2021/08/09 06:13:13;;;;;;;1.50;1.20;;;13.40;98.00;;;;;;5073639;28;20931;-75
2021/08/09 06:15:40;;;;;;;1.20;1.10;;;13.60;98.00;;;;;;5073747;28;20521;-78
2021/08/09 06:18:09;;;;;;;1.30;1.20;;;13.80;98.00;;;;;;5073733;28;20871;-77
2021/08/09 06:20:38;;;;;;;1.57;1.43;;;13.90;98.00;;;;;;5055292;28;20483;-77
2021/08/09 06:23:05;;;;;;;1.20;1.17;;;13.90;98.00;;;;;;5073730;28;20868;-78
2021/08/09 06:25:32;;;;;;;1.20;1.13;;;14.00;98.00;;;;;;5073601;28;20466;-77
2021/08/09 06:27:59;;;;;;;1.20;1.00;;;14.00;98.00;;;;;;5073752;28;20509;-79
2021/08/09 06:30:26;;;;;;;1.20;1.00;;;14.00;98.00;;;;;;5073393;28;20450;-78
2021/08/09 06:32:53;;;;;;;1.20;1.00;;;14.00;98.00;;;;;;5073559;28;20525;-78
2021/08/09 06:35:21;;;;;;;1.20;1.00;;;14.10;98.00;;;;;;5055748;28;20496;-76
2021/08/09 06:37:49;;;;;;;1.47;1.20;;;14.30;98.00;;;;;;5073371;28;20450;-78
2021/08/09 06:40:16;;;;;;;1.43;1.30;;;14.40;98.00;;;;;;5072969;28;20485;-79
2021/08/09 06:42:46;;;;;;;1.20;1.10;;;14.50;98.00;;;;;;5073210;28;20961;-79
2021/08/09 06:45:13;;;;;;;1.20;1.00;;;14.60;98.00;;;;;;5073064;28;20849;-79
2021/08/09 06:47:40;;;;;;;1.20;1.03;;;14.80;98.00;;;;;;5072928;28;20941;-79
2021/08/09 06:50:08;;;;;;;2.03;1.60;;;14.80;98.00;;;;;;5073117;28;20446;-79
2021/08/09 06:52:36;;;;;;;1.20;1.03;;;14.90;98.00;;;;;;5072782;28;20488;-79
2021/08/09 06:55:04;;;;;;;1.20;1.10;;;15.10;98.00;;;;;;5072603;28;20461;-78
2021/08/09 06:57:31;;;;;;;1.90;1.40;;;15.20;98.00;;;;;;5073026;28;20536;-79
2021/08/09 06:59:58;;;;;;;1.70;1.30;;;15.40;98.00;;;;;;5072791;28;20563;-78
2021/08/09 07:02:26;;;;;;;1.20;1.10;;;15.40;98.00;;;;;;5072586;28;20457;-77
2021/08/09 07:04:53;;;;;;;1.20;1.07;;;15.50;98.00;;;;;;5072653;28;20920;-77
2021/08/09 07:07:20;;;;;;;1.30;1.10;;;15.60;98.00;;;;;;5084381;28;20465;-77
2021/08/09 07:09:48;;;;;;;1.40;1.20;;;15.80;98.00;;;;;;5087431;28;20542;-77
2021/08/09 07:12:15;;;;;;;1.20;1.20;;;15.90;98.00;;;;;;5086228;28;20532;-77
2021/08/09 07:14:42;;;;;;;1.40;1.20;;;16.10;98.00;;;;;;5074701;28;20474;-77
2021/08/09 07:17:09;;;;;;;1.20;1.20;;;16.20;98.00;;;;;;5084232;28;20449;-78
2021/08/09 07:19:37;;;;;;;1.30;1.20;;;16.30;98.00;;;;;;5079218;28;21080;-78
2021/08/09 07:22:05;;;;;;;1.20;1.20;;;16.40;98.00;;;;;;5071299;28;20455;-77
2021/08/09 07:24:32;;;;;;;1.77;1.37;;;16.50;98.00;;;;;;5058105;28;21137;-75
2021/08/09 07:27:00;;;;;;;1.40;1.20;;;16.60;98.00;;;;;;5088476;28;20455;-77
2021/08/09 07:29:29;;;;;;;1.60;1.20;;;16.80;98.00;;;;;;5092081;28;20475;-77
2021/08/09 07:31:56;;;;;;;1.20;1.00;;;16.90;98.00;;;;;;5074531;28;20465;-77
2021/08/09 07:34:23;;;;;;;1.20;1.10;;;17.20;98.00;;;;;;5092266;28;20562;-77
2021/08/09 07:36:51;;;;;;;1.30;1.20;;;17.60;98.00;;;;;;5092168;28;20804;-76
2021/08/09 07:39:18;;;;;;;1.20;1.10;;;18.10;98.00;;;;;;5057737;28;20869;-77
2021/08/09 07:41:45;;;;;;;1.43;1.30;;;18.60;98.00;;;;;;5092277;28;20460;-77
2021/08/09 07:44:13;;;;;;;1.40;1.20;;;19.00;98.00;;;;;;5074020;28;20572;-78
2021/08/09 07:46:42;;;;;;;1.73;1.50;;;19.20;98.00;;;;;;5092122;28;20500;-78
2021/08/09 07:49:09;;;;;;;1.57;1.20;;;19.00;98.00;;;;;;5092328;28;20488;-79
2021/08/09 07:51:36;;;;;;;1.70;1.20;;;19.20;98.00;;;;;;5091279;28;20492;-78
2021/08/09 07:54:03;;;;;;;1.80;1.40;;;19.50;98.00;;;;;;5091279;28;20506;-79
2021/08/09 07:56:30;;;;;;;1.97;1.50;;;19.80;98.00;;;;;;5091312;28;20456;-78
2021/08/09 07:58:57;;;;;;;1.40;1.27;;;20.00;98.00;;;;;;5073427;28;20513;-80
2021/08/09 08:01:25;;;;;;;1.20;1.10;;;20.10;98.00;;;;;;5073241;28;20976;-79
2021/08/09 08:03:52;;;;;;;1.20;1.07;;;20.10;98.00;;;;;;5091422;28;20460;-79
2021/08/09 08:06:19;;;;;;;2.13;1.40;;;20.30;98.00;;;;;;5091213;28;20460;-80
2021/08/09 08:08:46;;;;;;;1.40;1.20;;;20.40;98.00;;;;;;5090569;28;20855;-79
2021/08/09 08:11:13;;;;;;;2.00;1.27;;;20.30;98.00;;;;;;5073930;28;20515;-79
2021/08/09 08:13:48;;;;;;;1.60;1.30;;;20.30;98.00;;;;;;5091654;28;20466;-79
2021/08/09 08:16:15;;;;;;;1.40;1.30;;;20.20;98.00;;;;;;5091981;28;21011;-80
2021/08/09 08:18:43;;;;;;;1.20;1.10;;;20.20;98.00;;;;;;5091189;28;20494;-78
2021/08/09 08:21:10;;;;;;;1.30;1.20;;;20.00;98.00;;;;;;5091243;28;20484;-80
2021/08/09 08:23:37;;;;;;;1.20;1.10;;;20.00;98.00;;;;;;5092822;28;20509;-79
2021/08/09 08:26:04;;;;;;;1.20;1.03;;;20.00;98.00;;;;;;5075928;28;20499;-80
2021/08/09 08:28:31;;;;;;;2.40;1.60;;;20.00;98.00;;;;;;5091971;28;20525;-80
2021/08/09 08:30:58;;;;;;;1.20;1.10;;;20.20;98.00;;;;;;5091746;28;20533;-79
2021/08/09 08:33:25;;;;;;;1.20;1.10;;;20.30;98.00;;;;;;5090768;28;20492;-80
2021/08/09 08:35:53;;;;;;;1.20;1.20;;;20.30;98.00;;;;;;5091092;28;20537;-76
2021/08/09 08:38:20;;;;;;;1.30;1.10;;;20.40;98.00;;;;;;5090873;28;20499;-78
2021/08/09 08:40:48;;;;;;;1.83;1.33;;;20.50;98.00;;;;;;5090740;28;20482;-78
2021/08/09 08:43:22;;;;;;;1.20;1.10;;;20.50;98.00;;;;;;5090688;28;20475;-79
2021/08/09 08:45:56;;;;;;;1.27;1.10;;;20.60;98.00;;;;;;5090704;28;20459;-78
2021/08/09 08:48:24;;;;;;;2.20;1.27;;;20.70;96.80;;;;;;5090685;28;20527;-79
2021/08/09 08:50:53;;;;;;;1.30;1.10;;;20.80;97.60;;;;;;5090700;28;20505;-79
2021/08/09 08:53:20;;;;;;;1.20;1.10;;;20.80;97.40;;;;;;5090851;28;20463;-78
2021/08/09 08:55:53;;;;;;;1.20;1.07;;;21.00;96.40;;;;;;5090647;28;20488;-79
2021/08/09 08:58:21;;;;;;;1.23;1.20;;;21.00;92.70;;;;;;5072665;28;20499;-79
2021/08/09 09:00:50;;;;;;;1.23;1.10;;;21.10;91.80;;;;;;5090650;28;20533;-79
2021/08/09 09:03:18;;;;;;;1.27;1.17;;;21.10;92.10;;;;;;5090642;28;20460;-78
2021/08/09 09:06:01;;;;;;;1.20;1.10;;;21.30;91.70;;;;;;5090562;28;20460;-79
2021/08/09 09:08:42;;;;;;;1.30;1.10;;;21.50;90.20;;;;;;5090410;28;20505;-80
2021/08/09 09:11:11;;;;;;;1.20;1.03;;;21.60;89.00;;;;;;5090672;28;20459;-81
2021/08/09 09:13:38;;;;;;;1.20;1.10;;;21.80;89.80;;;;;;5090517;28;20514;-79
2021/08/09 09:16:07;;;;;;;1.20;1.10;;;21.90;90.40;;;;;;5090504;28;20508;-79
2021/08/09 09:18:53;;;;;;;1.20;1.07;;;22.10;91.40;;;;;;5091355;28;20525;-80
2021/08/09 09:21:42;;;;;;;1.40;1.23;;;22.30;88.30;;;;;;5094230;28;20488;-79
2021/08/09 09:24:11;;;;;;;1.20;1.03;;;22.30;92.60;;;;;;5088075;28;20505;-79
2021/08/09 09:26:40;;;;;;;1.40;1.30;;;22.40;88.00;;;;;;5093962;28;20768;-79
2021/08/09 09:29:09;;;;;;;1.30;1.20;;;22.50;87.90;;;;;;5076185;28;20513;-80
2021/08/09 09:31:37;;;;;;;1.47;1.27;;;22.60;89.00;;;;;;5093651;28;20507;-81
2021/08/09 09:34:08;;;;;;;1.20;1.20;;;22.80;87.00;;;;;;5093966;28;20501;-79
2021/08/09 09:36:47;;;;;;;1.20;1.10;;;22.80;88.10;;;;;;5093602;28;20455;-79
2021/08/09 09:39:33;;;;;;;1.20;1.10;;;22.90;85.40;;;;;;5093747;28;20528;-79
2021/08/09 09:42:03;;;;;;;1.90;1.27;;;23.00;87.00;;;;;;5093681;28;20452;-78
2021/08/09 09:44:32;;;;;;;1.20;1.10;;;23.10;88.30;;;;;;5075924;28;20950;-79
2021/08/09 09:47:22;;;;;;;1.20;1.20;;;23.30;85.50;;;;;;5075649;28;20460;-79
2021/08/09 09:49:50;;;;;;;1.20;1.10;;;23.40;83.50;;;;;;5093499;28;20467;-80
2021/08/09 09:52:39;;;;;;;1.40;1.17;;;23.50;85.60;;;;;;5093505;28;20930;-79
2021/08/09 09:55:08;;;;;;;1.30;1.20;;;23.60;83.60;;;;;;5093391;28;20527;-79
2021/08/09 09:57:35;;;;;;;1.20;1.07;;;23.70;85.30;;;;;;5093326;28;20449;-79
2021/08/09 10:00:07;;;;;;;1.40;1.20;;;23.80;85.10;;;;;;5093938;28;20479;-81
2021/08/09 10:02:34;;;;;;;1.20;1.10;;;23.80;84.50;;;;;;5093287;28;20943;-79
2021/08/09 10:05:02;;;;;;;1.47;1.20;;;24.00;84.70;;;;;;5093278;28;21095;-80
2021/08/09 10:07:30;;;;;;;1.60;1.13;;;24.10;85.30;;;;;;5093194;28;20967;-78
2021/08/09 10:10:01;;;;;;;1.40;1.20;;;24.10;84.30;;;;;;5061899;28;20887;-78
2021/08/09 10:12:31;;;;;;;1.47;1.30;;;24.10;84.90;;;;;;5089128;28;20501;-77
2021/08/09 10:14:59;;;;;;;1.27;1.10;;;24.20;85.10;;;;;;5071639;28;20526;-79
2021/08/09 10:17:29;;;;;;;1.30;1.10;;;24.10;82.40;;;;;;5080600;28;20987;-76
2021/08/09 10:19:59;;;;;;;1.40;1.30;;;24.00;84.00;;;;;;5080155;28;20481;-76
2021/08/09 10:22:26;;;;;;;1.20;1.17;;;24.20;83.30;;;;;;5071222;28;20857;-76
2021/08/09 10:24:55;;;;;;;1.23;1.10;;;24.40;82.30;;;;;;5062377;28;20962;-76
2021/08/09 10:27:52;;;;;;;1.30;1.20;;;24.60;84.40;;;;;;5083056;28;20923;-76
2021/08/09 10:30:21;;;;;;;1.20;1.10;;;24.60;80.80;;;;;;5078956;28;20467;-76
2021/08/09 10:32:51;;;;;;;1.20;1.10;;;24.70;81.30;;;;;;5080057;28;20453;-75
2021/08/09 10:36:00;;;;;;;1.33;1.17;;;24.60;80.10;;;;;;5080203;28;21006;-75
2021/08/09 10:38:35;;;;;;;1.30;1.13;;;24.70;76.60;;;;;;5056970;28;20457;-76
2021/08/09 10:41:29;;;;;;;1.50;1.30;;;24.60;77.80;;;;;;5079272;28;21165;-76
2021/08/09 10:44:28;;;;;;;1.67;1.53;;;24.70;81.00;;;;;;5071319;28;20806;-76
2021/08/09 10:46:57;;;;;;;1.20;1.03;;;24.60;80.10;;;;;;5070701;28;20492;-76
2021/08/09 10:49:57;;;;;;;1.67;1.40;;;24.70;80.80;;;;;;5075440;28;20472;-76
2021/08/09 10:52:45;;;;;;;1.70;1.33;;;24.90;78.60;;;;;;5064859;28;20465;-75
2021/08/09 10:55:43;;;;;;;1.30;1.20;;;25.00;79.20;;;;;;5084267;28;21042;-75
2021/08/09 10:58:31;;;;;;;5.03;1.37;;;25.30;79.90;;;;;;5069919;28;20448;-75
2021/08/09 11:01:00;;;;;;;1.40;1.30;;;25.30;79.50;;;;;;5069965;28;20492;-76
2021/08/09 11:03:27;;;;;;;1.67;1.40;;;25.30;78.30;;;;;;5070832;28;20916;-76
2021/08/09 11:05:54;;;;;;;1.40;1.20;;;25.30;77.60;;;;;;5081314;28;20562;-76
2021/08/09 11:08:33;;;;;;;1.50;1.27;;;25.30;76.70;;;;;;5076865;28;20521;-77
2021/08/09 11:11:05;;;;;;;1.30;1.20;;;25.30;77.10;;;;;;5073041;28;20451;-76
2021/08/09 11:14:14;;;;;;;1.20;1.20;;;25.50;77.80;;;;;;5079126;28;20452;-75
2021/08/09 11:16:43;;;;;;;1.43;1.30;;;25.70;77.50;;;;;;5086249;28;20872;-77
2021/08/09 11:19:21;;;;;;;1.50;1.20;;;25.80;77.00;;;;;;5087674;28;21006;-75
2021/08/09 11:22:00;;;;;;;1.40;1.10;;;25.70;77.30;;;;;;5071547;28;20598;-76
2021/08/09 11:24:34;;;;;;;1.20;1.20;;;25.60;75.50;;;;;;5085501;28;20453;-76
2021/08/09 11:27:08;;;;;;;1.40;1.20;;;25.70;75.90;;;;;;5078743;28;20463;-76
2021/08/09 11:29:57;;;;;;;1.37;1.33;;;26.00;75.40;;;;;;5074297;28;20510;-76
2021/08/09 11:32:40;;;;;;;1.30;1.30;;;26.30;76.40;;;;;;5086580;28;20467;-76
2021/08/09 11:35:07;;;;;;;1.27;1.20;;;26.70;76.40;;;;;;5078297;28;20954;-75
2021/08/09 11:37:52;;;;;;;1.30;1.10;;;26.50;73.00;;;;;;5078304;28;20508;-75
2021/08/09 11:40:36;;;;;;;1.50;1.40;;;26.80;75.70;;;;;;5063661;28;20549;-75
2021/08/09 11:43:03;;;;;;;2.10;1.47;;;27.00;78.30;;;;;;5078007;28;20495;-76
2021/08/09 11:45:30;;;;;;;1.30;1.20;;;26.90;75.50;;;;;;5084389;28;20465;-77
2021/08/09 11:47:59;;;;;;;1.70;1.33;;;27.00;75.40;;;;;;5080489;28;20517;-76
2021/08/09 11:50:26;;;;;;;1.60;1.33;;;26.80;74.90;;;;;;5075536;28;20513;-76
2021/08/09 11:52:53;;;;;;;1.57;1.33;;;27.00;76.00;;;;;;5071271;28;20460;-76
2021/08/09 11:55:21;;;;;;;2.17;1.33;;;27.00;73.00;;;;;;5084506;28;20463;-76
2021/08/09 11:57:48;;;;;;;1.90;1.80;;;27.10;71.50;;;;;;5071634;28;20466;-76
2021/08/09 12:00:16;;;;;;;1.20;1.17;;;27.30;74.30;;;;;;5084650;28;20456;-76
2021/08/09 12:03:18;;;;;;;1.30;1.23;;;27.30;74.00;;;;;;5052775;28;20498;-76
2021/08/09 12:05:46;;;;;;;1.40;1.13;;;26.80;73.90;;;;;;5072421;28;20455;-76
2021/08/09 12:08:13;;;;;;;1.20;1.20;;;26.30;76.10;;;;;;5080044;28;20480;-76
2021/08/09 12:10:41;;;;;;;1.30;1.30;;;26.00;76.40;;;;;;5068319;28;20511;-75
2021/08/09 12:13:32;;;;;;;1.70;1.30;;;26.00;79.50;;;;;;5076590;28;20513;-75
2021/08/09 12:16:17;;;;;;;1.40;1.33;;;26.20;76.20;;;;;;5067038;28;20456;-74
2021/08/09 12:18:56;;;;;;;1.30;1.30;;;26.50;77.30;;;;;;5074064;28;20468;-76
2021/08/09 12:21:33;;;;;;;1.53;1.37;;;26.60;76.10;;;;;;5090868;28;20519;-76
2021/08/09 12:24:01;;;;;;;1.30;1.30;;;26.90;76.90;;;;;;5090912;28;21045;-76
2021/08/09 12:26:31;;;;;;;1.40;1.20;;;27.10;74.80;;;;;;5090951;28;20509;-77
2021/08/09 12:29:00;;;;;;;1.30;1.20;;;27.30;75.10;;;;;;5091016;28;20476;-77
2021/08/09 12:31:32;;;;;;;1.67;1.20;;;27.60;75.50;;;;;;5090712;28;21058;-76
2021/08/09 12:34:01;;;;;;;1.30;1.20;;;27.90;73.50;;;;;;5090881;28;20509;-76
2021/08/09 12:36:28;;;;;;;1.70;1.30;;;27.90;72.60;;;;;;5090953;28;20815;-77
2021/08/09 12:38:55;;;;;;;1.33;1.20;;;28.10;74.60;;;;;;5091041;28;20857;-77
2021/08/09 12:41:26;;;;;;;1.20;1.20;;;28.10;74.00;;;;;;5090393;28;20476;-76
2021/08/09 12:43:54;;;;;;;2.10;1.50;;;27.80;72.50;;;;;;5090763;28;20514;-77
2021/08/09 12:46:21;;;;;;;1.47;1.40;;;27.80;71.60;;;;;;5090659;28;20456;-77
2021/08/09 12:48:49;;;;;;;1.37;1.30;;;27.90;72.40;;;;;;5090621;28;20829;-77
2021/08/09 12:51:17;;;;;;;1.40;1.13;;;27.90;71.70;;;;;;5073075;28;21043;-77
2021/08/09 12:53:45;;;;;;;1.53;1.27;;;27.70;70.50;;;;;;5091718;28;20477;-77
2021/08/09 12:56:12;;;;;;;1.50;1.43;;;27.80;71.50;;;;;;5094589;28;20478;-77
2021/08/09 12:58:40;;;;;;;1.67;1.30;;;28.00;71.10;;;;;;5094596;28;20805;-76
2021/08/09 13:01:07;;;;;;;1.50;1.40;;;28.00;73.40;;;;;;5094648;28;20491;-77
2021/08/09 13:03:34;;;;;;;1.30;1.20;;;27.80;73.40;;;;;;5094455;28;20485;-77